createdAt,value
2019-06-26T00:00:11.318Z,1016.27
2019-06-26T00:01:11.058Z,1016.24
2019-06-26T00:02:11.088Z,1016.26
2019-06-26T00:03:11.194Z,1016.25
2019-06-26T00:04:11.167Z,1016.24
2019-06-26T00:05:11.221Z,1016.22
2019-06-26T00:06:11.256Z,1016.27
2019-06-26T00:07:11.594Z,1016.27
2019-06-26T00:08:11.330Z,1016.29
2019-06-26T00:09:11.361Z,1016.29
2019-06-26T00:10:11.400Z,1016.26
2019-06-26T00:11:11.472Z,1016.30
2019-06-26T00:12:11.475Z,1016.29
2019-06-26T00:13:25.272Z,1016.29
2019-06-26T00:14:11.798Z,1016.31
2019-06-26T00:15:11.590Z,1016.33
2019-06-26T00:16:11.631Z,1016.32
2019-06-26T00:17:11.668Z,1016.34
2019-06-26T00:18:11.722Z,1016.36
2019-06-26T00:19:11.749Z,1016.36
2019-06-26T00:20:11.785Z,1016.41
2019-06-26T00:21:12.120Z,1016.41
2019-06-26T00:22:11.860Z,1016.42
2019-06-26T00:23:11.900Z,1016.46
2019-06-26T00:24:11.885Z,1016.43
2019-06-26T00:25:11.974Z,1016.44
2019-06-26T00:26:12.012Z,1016.44
2019-06-26T00:27:12.068Z,1016.52
2019-06-26T00:28:12.386Z,1016.49
2019-06-26T00:29:12.128Z,1016.53
2019-06-26T00:30:12.163Z,1016.53
2019-06-26T00:31:12.207Z,1016.53
2019-06-26T00:32:12.248Z,1016.53
2019-06-26T00:33:12.289Z,1016.56
2019-06-26T00:34:12.315Z,1016.58
2019-06-26T00:35:12.661Z,1016.60
2019-06-26T00:36:12.420Z,1016.60
2019-06-26T00:37:12.437Z,1016.60
2019-06-26T00:38:12.486Z,1016.60
2019-06-26T00:39:12.464Z,1016.59
2019-06-26T00:40:12.600Z,1016.56
2019-06-26T00:41:12.587Z,1016.56
2019-06-26T00:42:12.939Z,1016.58
2019-06-26T00:43:12.665Z,1016.57
2019-06-26T00:44:12.701Z,1016.59
2019-06-26T00:45:12.745Z,1016.60
2019-06-26T00:46:12.747Z,1016.58
2019-06-26T00:47:12.821Z,1016.58
2019-06-26T00:48:12.862Z,1016.60
2019-06-26T00:49:13.199Z,1016.55
2019-06-26T00:50:12.934Z,1016.60
2019-06-26T00:51:12.977Z,1016.60
2019-06-26T00:52:12.969Z,1016.60
2019-06-26T00:53:13.051Z,1016.61
2019-06-26T00:54:13.088Z,1016.60
2019-06-26T00:55:13.424Z,1016.60
2019-06-26T00:56:13.167Z,1016.61
2019-06-26T00:57:13.204Z,1016.64
2019-06-26T00:58:13.248Z,1016.64
2019-06-26T00:59:13.291Z,1016.69
2019-06-26T01:00:13.355Z,1016.63
2019-06-26T01:01:13.657Z,1016.68
2019-06-26T01:02:13.406Z,1016.63
2019-06-26T01:03:13.428Z,1016.69
2019-06-26T01:04:13.473Z,1016.66
2019-06-26T01:05:13.528Z,1016.65
2019-06-26T01:06:13.547Z,1016.67
2019-06-26T01:07:13.895Z,1016.70
2019-06-26T01:08:13.635Z,1016.69
2019-06-26T01:09:13.659Z,1016.70
2019-06-26T01:10:13.754Z,1016.70
2019-06-26T01:11:13.732Z,1016.70
2019-06-26T01:12:13.770Z,1016.74
2019-06-26T01:13:13.809Z,1016.75
2019-06-26T01:14:14.152Z,1016.73
2019-06-26T01:15:13.896Z,1016.72
2019-06-26T01:16:14.005Z,1016.73
2019-06-26T01:17:13.917Z,1016.76
2019-06-26T01:18:14.009Z,1016.76
2019-06-26T01:19:14.049Z,1016.74
2019-06-26T01:21:14.118Z,1016.74
2019-06-26T01:22:14.463Z,1016.76
2019-06-26T01:23:14.197Z,1016.77
2019-06-26T01:24:14.228Z,1016.75
2019-06-26T01:25:14.226Z,1016.73
2019-06-26T01:27:14.349Z,1016.74
2019-06-26T01:28:14.396Z,1016.75
2019-06-26T01:29:14.721Z,1016.72
2019-06-26T01:30:14.476Z,1016.73
2019-06-26T01:31:14.500Z,1016.74
2019-06-26T01:32:14.533Z,1016.73
2019-06-26T01:33:14.577Z,1016.75
2019-06-26T01:34:14.617Z,1016.78
2019-06-26T01:35:14.653Z,1016.75
2019-06-26T01:36:15.001Z,1016.74
2019-06-26T01:37:14.734Z,1016.73
2019-06-26T01:38:14.773Z,1016.77
2019-06-26T01:39:14.806Z,1016.78
2019-06-26T01:40:14.799Z,1016.82
2019-06-26T01:41:14.890Z,1016.80
2019-06-26T01:42:14.919Z,1016.77
2019-06-26T01:43:15.259Z,1016.78
2019-06-26T01:44:15.774Z,1016.81
2019-06-26T01:45:15.034Z,1016.76
2019-06-26T01:46:15.065Z,1016.75
2019-06-26T01:47:15.115Z,1016.76
2019-06-26T01:48:15.169Z,1016.75
2019-06-26T01:49:15.185Z,1016.73
2019-06-26T01:50:15.526Z,1016.74
2019-06-26T01:51:15.266Z,1016.74
2019-06-26T01:52:15.304Z,1016.76
2019-06-26T01:53:15.338Z,1016.73
2019-06-26T01:54:15.376Z,1016.75
2019-06-26T01:55:15.461Z,1016.76
2019-06-26T01:56:15.449Z,1016.77
2019-06-26T01:57:15.793Z,1016.82
2019-06-26T01:58:15.555Z,1016.78
2019-06-26T01:59:15.597Z,1016.82
2019-06-26T02:00:15.613Z,1016.83
2019-06-26T02:01:15.649Z,1016.84
2019-06-26T02:02:15.680Z,1016.84
2019-06-26T02:03:15.724Z,1016.84
2019-06-26T02:04:16.049Z,1016.85
2019-06-26T02:05:15.785Z,1016.85
2019-06-26T02:06:15.827Z,1016.86
2019-06-26T02:07:15.863Z,1016.83
2019-06-26T02:08:15.905Z,1016.88
2019-06-26T02:09:15.942Z,1016.88
2019-06-26T02:10:15.983Z,1016.86
2019-06-26T02:11:16.323Z,1016.84
2019-06-26T02:12:16.057Z,1016.90
2019-06-26T02:13:16.110Z,1016.91
2019-06-26T02:14:29.938Z,1016.93
2019-06-26T02:15:16.121Z,1016.94
2019-06-26T02:16:16.203Z,1016.93
2019-06-26T02:17:16.254Z,1016.91
2019-06-26T02:18:16.584Z,1016.95
2019-06-26T02:19:16.328Z,1016.98
2019-06-26T02:20:16.360Z,1016.97
2019-06-26T02:21:16.418Z,1017.00
2019-06-26T02:22:16.435Z,1016.97
2019-06-26T02:23:16.417Z,1016.96
2019-06-26T02:24:16.517Z,1017.00
2019-06-26T02:25:16.809Z,1016.99
2019-06-26T02:26:16.586Z,1016.99
2019-06-26T02:27:16.624Z,1017.04
2019-06-26T02:28:16.664Z,1017.04
2019-06-26T02:29:16.699Z,1017.05
2019-06-26T02:30:16.720Z,1017.07
2019-06-26T02:31:16.770Z,1017.07
2019-06-26T02:32:17.115Z,1017.07
2019-06-26T02:33:16.849Z,1017.03
2019-06-26T02:34:16.842Z,1017.04
2019-06-26T02:36:17.048Z,1017.10
2019-06-26T02:37:17.001Z,1017.12
2019-06-26T02:38:17.039Z,1017.11
2019-06-26T02:39:17.377Z,1017.13
2019-06-26T02:40:17.064Z,1017.15
2019-06-26T02:41:17.105Z,1017.15
2019-06-26T02:42:17.192Z,1017.20
2019-06-26T02:43:17.236Z,1017.22
2019-06-26T02:45:17.304Z,1017.19
2019-06-26T02:46:17.650Z,1017.20
2019-06-26T02:47:20.094Z,1017.19
2019-06-26T02:48:17.422Z,1017.26
2019-06-26T02:49:17.473Z,1017.23
2019-06-26T02:50:17.492Z,1017.22
2019-06-26T02:51:17.526Z,1017.25
2019-06-26T02:52:17.570Z,1017.22
2019-06-26T02:53:17.913Z,1017.22
2019-06-26T02:54:17.648Z,1017.22
2019-06-26T02:55:17.682Z,1017.25
2019-06-26T02:56:17.718Z,1017.23
2019-06-26T02:57:17.700Z,1017.20
2019-06-26T02:58:17.806Z,1017.23
2019-06-26T02:59:18.153Z,1017.24
2019-06-26T03:00:17.885Z,1017.21
2019-06-26T03:01:17.859Z,1017.22
2019-06-26T03:02:17.952Z,1017.21
2019-06-26T03:03:17.982Z,1017.25
2019-06-26T03:04:18.013Z,1017.22
2019-06-26T03:05:18.355Z,1017.26
2019-06-26T03:06:18.089Z,1017.27
2019-06-26T03:07:18.132Z,1017.29
2019-06-26T03:08:18.171Z,1017.29
2019-06-26T03:09:18.200Z,1017.32
2019-06-26T03:10:18.447Z,1017.32
2019-06-26T03:11:18.586Z,1017.32
2019-06-26T03:12:18.331Z,1017.35
2019-06-26T03:13:18.357Z,1017.32
2019-06-26T03:14:18.390Z,1017.35
2019-06-26T03:15:18.382Z,1017.36
2019-06-26T03:16:18.468Z,1017.39
2019-06-26T03:17:18.461Z,1017.44
2019-06-26T03:18:18.840Z,1017.43
2019-06-26T03:19:18.578Z,1017.44
2019-06-26T03:22:18.638Z,1017.45
2019-06-26T03:23:18.730Z,1017.45
2019-06-26T03:24:18.714Z,1017.46
2019-06-26T03:25:19.104Z,1017.46
2019-06-26T03:26:18.844Z,1017.49
2019-06-26T03:27:18.887Z,1017.49
2019-06-26T03:28:18.923Z,1017.48
2019-06-26T03:29:18.948Z,1017.53
2019-06-26T03:30:18.993Z,1017.56
2019-06-26T03:31:19.036Z,1017.60
2019-06-26T03:32:19.373Z,1017.59
2019-06-26T03:33:19.105Z,1017.61
2019-06-26T03:34:19.136Z,1017.57
2019-06-26T03:35:19.189Z,1017.60
2019-06-26T03:36:19.217Z,1017.64
2019-06-26T03:37:19.254Z,1017.62
2019-06-26T03:38:19.285Z,1017.65
2019-06-26T03:39:19.626Z,1017.63
2019-06-26T03:40:19.369Z,1017.62
2019-06-26T03:42:54.923Z,1017.66
2019-06-26T03:43:54.965Z,1017.68
2019-06-26T03:44:55.009Z,1017.68
2019-06-26T03:45:55.053Z,1017.64
2019-06-26T03:46:55.101Z,1017.68
2019-06-26T03:47:55.108Z,1017.67
2019-06-26T03:48:55.446Z,1017.68
2019-06-26T03:49:55.191Z,1017.68
2019-06-26T03:50:55.264Z,1017.74
2019-06-26T03:51:55.264Z,1017.76
2019-06-26T03:52:55.305Z,1017.76
2019-06-26T03:53:55.335Z,1017.74
2019-06-26T03:54:55.379Z,1017.80
2019-06-26T03:55:55.730Z,1017.78
2019-06-26T03:56:55.451Z,1017.78
2019-06-26T03:57:55.485Z,1017.78
2019-06-26T03:58:55.526Z,1017.82
2019-06-26T03:59:55.791Z,1017.82
2019-06-26T04:00:55.690Z,1017.84
2019-06-26T04:01:55.630Z,1017.84
2019-06-26T04:02:55.979Z,1017.89
2019-06-26T04:03:57.439Z,1017.89
2019-06-26T04:04:55.804Z,1017.93
2019-06-26T04:05:55.779Z,1017.91
2019-06-26T04:06:55.810Z,1017.90
2019-06-26T04:07:55.855Z,1017.90
2019-06-26T04:08:55.897Z,1017.91
2019-06-26T04:09:56.234Z,1017.92
2019-06-26T04:10:55.930Z,1017.95
2019-06-26T04:11:56.026Z,1017.94
2019-06-26T04:12:56.052Z,1017.95
2019-06-26T04:13:56.093Z,1017.95
2019-06-26T04:14:56.119Z,1017.93
2019-06-26T04:15:56.159Z,1017.96
2019-06-26T04:16:56.448Z,1017.99
2019-06-26T04:17:56.199Z,1017.98
2019-06-26T04:18:56.278Z,1017.97
2019-06-26T04:19:56.329Z,1018.00
2019-06-26T04:20:56.346Z,1018.02
2019-06-26T04:21:56.386Z,1017.99
2019-06-26T04:22:56.438Z,1018.03
2019-06-26T04:23:56.765Z,1018.02
2019-06-26T04:24:56.499Z,1018.05
2019-06-26T04:25:56.539Z,1018.07
2019-06-26T04:26:56.521Z,1018.12
2019-06-26T04:27:56.612Z,1018.17
2019-06-26T04:28:56.653Z,1018.11
2019-06-26T04:29:56.697Z,1018.13
2019-06-26T04:30:57.032Z,1018.14
2019-06-26T04:31:56.761Z,1018.12
2019-06-26T04:32:56.805Z,1018.13
2019-06-26T04:33:56.837Z,1018.10
2019-06-26T04:34:56.879Z,1018.08
2019-06-26T04:35:56.915Z,1018.12
2019-06-26T04:36:56.896Z,1018.10
2019-06-26T04:37:57.293Z,1018.13
2019-06-26T04:38:56.979Z,1018.14
2019-06-26T04:39:57.032Z,1018.12
2019-06-26T04:40:57.110Z,1018.12
2019-06-26T04:41:57.137Z,1018.15
2019-06-26T04:42:57.127Z,1018.15
2019-06-26T04:43:57.222Z,1018.17
2019-06-26T04:44:57.571Z,1018.20
2019-06-26T04:45:58.678Z,1018.18
2019-06-26T04:46:57.327Z,1018.18
2019-06-26T04:47:57.368Z,1018.16
2019-06-26T04:48:57.410Z,1018.15
2019-06-26T04:49:57.469Z,1018.19
2019-06-26T04:50:57.482Z,1018.20
2019-06-26T04:51:57.833Z,1018.23
2019-06-26T04:52:57.560Z,1018.24
2019-06-26T04:53:57.597Z,1018.24
2019-06-26T04:54:57.631Z,1018.26
2019-06-26T04:55:57.671Z,1018.28
2019-06-26T04:56:57.734Z,1018.28
2019-06-26T04:57:57.745Z,1018.28
2019-06-26T04:58:58.109Z,1018.30
2019-06-26T04:59:57.820Z,1018.31
2019-06-26T05:00:57.866Z,1018.31
2019-06-26T05:01:57.899Z,1018.34
2019-06-26T05:02:57.938Z,1018.31
2019-06-26T05:03:57.974Z,1018.34
2019-06-26T05:04:58.312Z,1018.33
2019-06-26T05:05:58.053Z,1018.32
2019-06-26T05:06:58.088Z,1018.34
2019-06-26T05:07:58.127Z,1018.35
2019-06-26T05:08:58.122Z,1018.32
2019-06-26T05:09:58.154Z,1018.34
2019-06-26T05:10:58.546Z,1018.36
2019-06-26T05:11:58.303Z,1018.35
2019-06-26T05:12:58.327Z,1018.36
2019-06-26T05:13:58.357Z,1018.35
2019-06-26T05:14:58.392Z,1018.32
2019-06-26T05:16:13.667Z,1018.34
2019-06-26T05:16:58.469Z,1018.32
2019-06-26T05:17:58.505Z,1018.32
2019-06-26T05:18:58.547Z,1018.36
2019-06-26T05:19:58.589Z,1018.32
2019-06-26T05:20:58.624Z,1018.35
2019-06-26T05:22:58.713Z,1018.40
2019-06-26T05:23:58.752Z,1018.39
2019-06-26T05:24:58.774Z,1018.39
2019-06-26T05:25:58.813Z,1018.37
2019-06-26T05:26:58.856Z,1018.38
2019-06-26T05:27:58.931Z,1018.43
2019-06-26T05:28:59.237Z,1018.41
2019-06-26T05:29:58.971Z,1018.42
2019-06-26T05:30:58.962Z,1018.45
2019-06-26T05:31:59.059Z,1018.47
2019-06-26T05:32:59.076Z,1018.44
2019-06-26T05:33:59.116Z,1018.49
2019-06-26T05:34:59.155Z,1018.52
2019-06-26T05:35:59.497Z,1018.52
2019-06-26T05:36:59.302Z,1018.53
2019-06-26T05:37:59.289Z,1018.56
2019-06-26T05:38:59.308Z,1018.58
2019-06-26T05:39:59.403Z,1018.57
2019-06-26T05:41:59.425Z,1018.60
2019-06-26T05:42:59.767Z,1018.63
2019-06-26T05:43:59.496Z,1018.66
2019-06-26T05:44:59.543Z,1018.70
2019-06-26T05:45:59.598Z,1018.65
2019-06-26T05:46:59.613Z,1018.69
2019-06-26T05:47:59.659Z,1018.71
2019-06-26T05:48:59.689Z,1018.73
2019-06-26T05:50:00.028Z,1018.71
2019-06-26T05:50:59.865Z,1018.73
2019-06-26T05:52:02.080Z,1018.69
2019-06-26T05:52:59.846Z,1018.74
2019-06-26T05:53:59.889Z,1018.72
2019-06-26T05:54:59.936Z,1018.74
2019-06-26T05:56:00.263Z,1018.72
2019-06-26T05:56:59.994Z,1018.72
2019-06-26T05:57:59.988Z,1018.74
2019-06-26T05:59:00.093Z,1018.68
2019-06-26T06:00:00.184Z,1018.69
2019-06-26T06:01:00.155Z,1018.67
2019-06-26T06:02:00.508Z,1018.67
2019-06-26T06:03:00.229Z,1018.64
2019-06-26T06:04:00.275Z,1018.68
2019-06-26T06:05:00.304Z,1018.68
2019-06-26T06:06:00.358Z,1018.71
2019-06-26T06:07:00.386Z,1018.74
2019-06-26T06:08:00.733Z,1018.72
2019-06-26T06:09:00.407Z,1018.75
2019-06-26T06:10:00.455Z,1018.77
2019-06-26T06:11:00.541Z,1018.73
2019-06-26T06:12:00.592Z,1018.74
2019-06-26T06:13:00.616Z,1018.74
2019-06-26T06:14:00.655Z,1018.73
2019-06-26T06:15:01.036Z,1018.81
2019-06-26T06:16:00.731Z,1018.80
2019-06-26T06:17:00.765Z,1018.78
2019-06-26T06:18:00.901Z,1018.79
2019-06-26T06:19:00.857Z,1018.82
2019-06-26T06:20:00.878Z,1018.79
2019-06-26T06:21:00.914Z,1018.84
2019-06-26T06:22:00.962Z,1018.82
2019-06-26T06:23:01.029Z,1018.84
2019-06-26T06:24:00.983Z,1018.88
2019-06-26T06:25:01.127Z,1018.82
2019-06-26T06:26:01.093Z,1018.87
2019-06-26T06:28:01.196Z,1018.89
2019-06-26T06:29:01.539Z,1018.95
2019-06-26T06:30:01.286Z,1018.95
2019-06-26T06:31:01.302Z,1018.92
2019-06-26T06:32:01.294Z,1018.95
2019-06-26T06:33:01.356Z,1018.95
2019-06-26T06:34:01.474Z,1018.97
2019-06-26T06:35:01.533Z,1018.95
2019-06-26T06:36:01.504Z,1018.95
2019-06-26T06:37:01.481Z,1018.97
2019-06-26T06:38:01.572Z,1018.99
2019-06-26T06:39:01.622Z,1018.99
2019-06-26T06:40:01.656Z,1018.98
2019-06-26T06:41:01.750Z,1018.99
2019-06-26T06:42:02.047Z,1018.96
2019-06-26T06:43:01.767Z,1018.99
2019-06-26T06:44:01.806Z,1019.04
2019-06-26T06:45:02.119Z,1019.01
2019-06-26T06:46:01.900Z,1019.04
2019-06-26T06:47:04.394Z,1019.03
2019-06-26T06:48:01.916Z,1019.07
2019-06-26T06:49:02.299Z,1019.10
2019-06-26T06:51:02.076Z,1019.17
2019-06-26T06:52:02.160Z,1019.16
2019-06-26T06:53:02.152Z,1019.15
2019-06-26T06:54:02.193Z,1019.14
2019-06-26T06:55:02.251Z,1019.11
2019-06-26T06:56:02.572Z,1019.15
2019-06-26T06:57:02.310Z,1019.11
2019-06-26T06:58:02.366Z,1019.15
2019-06-26T06:59:02.411Z,1019.14
2019-06-26T07:00:02.417Z,1019.16
2019-06-26T07:01:02.457Z,1019.19
2019-06-26T07:02:02.757Z,1019.21
2019-06-26T07:03:02.538Z,1019.20
2019-06-26T07:04:02.572Z,1019.25
2019-06-26T07:05:02.613Z,1019.24
2019-06-26T07:06:02.653Z,1019.26
2019-06-26T07:07:02.708Z,1019.27
2019-06-26T07:08:02.934Z,1019.28
2019-06-26T07:09:02.913Z,1019.27
2019-06-26T07:10:02.821Z,1019.32
2019-06-26T07:11:02.917Z,1019.29
2019-06-26T07:12:02.917Z,1019.27
2019-06-26T07:13:02.966Z,1019.31
2019-06-26T07:14:03.334Z,1019.29
2019-06-26T07:15:03.071Z,1019.29
2019-06-26T07:16:03.171Z,1019.28
2019-06-26T07:17:18.912Z,1019.31
2019-06-26T07:18:03.189Z,1019.28
2019-06-26T07:19:03.169Z,1019.30
2019-06-26T07:20:03.236Z,1019.32
2019-06-26T07:21:03.628Z,1019.32
2019-06-26T07:22:06.973Z,1019.32
2019-06-26T07:23:03.344Z,1019.33
2019-06-26T07:24:03.446Z,1019.31
2019-06-26T07:25:03.435Z,1019.32
2019-06-26T07:26:03.465Z,1019.39
2019-06-26T07:27:03.503Z,1019.39
2019-06-26T07:28:03.921Z,1019.42
2019-06-26T07:29:03.602Z,1019.41
2019-06-26T07:30:03.632Z,1019.44
2019-06-26T07:31:03.732Z,1019.45
2019-06-26T07:32:03.745Z,1019.47
2019-06-26T07:34:03.806Z,1019.50
2019-06-26T07:35:03.801Z,1019.49
2019-06-26T07:36:03.941Z,1019.52
2019-06-26T07:37:03.865Z,1019.52
2019-06-26T07:38:03.929Z,1019.58
2019-06-26T07:39:03.977Z,1019.58
2019-06-26T07:40:04.023Z,1019.59
2019-06-26T07:41:04.077Z,1019.58
2019-06-26T07:42:04.088Z,1019.63
2019-06-26T07:43:04.095Z,1019.64
2019-06-26T07:45:04.215Z,1019.62
2019-06-26T07:46:04.233Z,1019.63
2019-06-26T07:47:12.713Z,1019.60
2019-06-26T07:48:04.299Z,1019.66
2019-06-26T07:49:04.334Z,1019.69
2019-06-26T07:50:04.377Z,1019.67
2019-06-26T07:51:04.408Z,1019.67
2019-06-26T07:52:04.464Z,1019.70
2019-06-26T07:53:04.819Z,1019.68
2019-06-26T07:54:04.548Z,1019.65
2019-06-26T07:55:04.586Z,1019.66
2019-06-26T07:56:04.687Z,1019.69
2019-06-26T07:57:04.684Z,1019.66
2019-06-26T07:58:04.710Z,1019.74
2019-06-26T07:59:05.025Z,1019.69
2019-06-26T08:00:04.792Z,1019.69
2019-06-26T08:01:04.817Z,1019.71
2019-06-26T08:02:04.830Z,1019.72
2019-06-26T08:03:04.969Z,1019.72
2019-06-26T08:04:04.926Z,1019.71
2019-06-26T08:05:05.326Z,1019.69
2019-06-26T08:07:05.068Z,1019.70
2019-06-26T08:08:05.074Z,1019.73
2019-06-26T08:09:05.135Z,1019.71
2019-06-26T08:10:05.177Z,1019.72
2019-06-26T08:11:06.525Z,1019.76
2019-06-26T08:12:05.595Z,1019.72
2019-06-26T08:13:05.286Z,1019.73
2019-06-26T08:14:05.316Z,1019.73
2019-06-26T08:15:05.352Z,1019.70
2019-06-26T08:16:05.447Z,1019.73
2019-06-26T08:17:05.448Z,1019.73
2019-06-26T08:18:05.480Z,1019.71
2019-06-26T08:19:05.571Z,1019.71
2019-06-26T08:20:05.618Z,1019.72
2019-06-26T08:21:12.669Z,1019.72
2019-06-26T08:22:05.631Z,1019.73
2019-06-26T08:23:05.658Z,1019.72
2019-06-26T08:24:05.708Z,1019.74
2019-06-26T08:25:06.125Z,1019.72
2019-06-26T08:26:05.824Z,1019.71
2019-06-26T08:27:05.859Z,1019.71
2019-06-26T08:28:05.877Z,1019.73
2019-06-26T08:29:05.902Z,1019.74
2019-06-26T08:30:05.949Z,1019.76
2019-06-26T08:31:05.996Z,1019.78
2019-06-26T08:32:06.325Z,1019.79
2019-06-26T08:33:06.079Z,1019.78
2019-06-26T08:34:06.130Z,1019.75
2019-06-26T08:35:06.153Z,1019.75
2019-06-26T08:36:06.213Z,1019.78
2019-06-26T08:37:06.221Z,1019.75
2019-06-26T08:38:12.451Z,1019.78
2019-06-26T08:39:06.287Z,1019.73
2019-06-26T08:40:06.408Z,1019.75
2019-06-26T08:41:06.374Z,1019.79
2019-06-26T08:42:06.452Z,1019.79
2019-06-26T08:43:06.459Z,1019.76
2019-06-26T08:45:06.563Z,1019.79
2019-06-26T08:46:06.944Z,1019.80
2019-06-26T08:47:06.694Z,1019.79
2019-06-26T08:48:17.323Z,1019.81
2019-06-26T08:49:20.944Z,1019.81
2019-06-26T08:50:06.714Z,1019.79
2019-06-26T08:51:06.813Z,1019.77
2019-06-26T08:52:06.824Z,1019.80
2019-06-26T08:53:07.191Z,1019.79
2019-06-26T08:54:06.926Z,1019.79
2019-06-26T08:55:06.949Z,1019.83
2019-06-26T08:56:06.977Z,1019.84
2019-06-26T08:57:06.999Z,1019.89
2019-06-26T08:58:07.031Z,1019.87
2019-06-26T08:59:07.116Z,1019.87
2019-06-26T09:00:07.474Z,1019.87
2019-06-26T09:01:07.172Z,1019.85
2019-06-26T09:02:07.201Z,1019.86
2019-06-26T09:03:07.329Z,1019.84
